Parsa — TCA3179 — position and weather

sailwx.info

Track history (hours):
 
Tides and Currents Weather Stations Pressure Air Temp Water Temp Dewpoint Dewpoint Depression Visibility Wind Speed Wind Dir Waves Ship Positions

Parsa

Last reported at 2017-Oct-17 17:35 UTC. Time now 2017-Oct-20 12:44 UTC.
Position N 42°09' E 028°40'.

Length 115 m; draft 5 m.

Type: Ship. MMSI: 271043873.

Date/timePositionNaut miles runAvg speedWind from/ knotsBaromVisibWave heightAir tempDewpointWater temp
2017-Oct-17 17:35N 42°09' E 028°40'0 0.4
2017-Oct-17 17:25N 42°09' E 028°40'0 0.3
2017-Oct-17 17:00N 42°09' E 028°40'0 0.4
2017-Oct-17 16:24N 42°09' E 028°40'0 0.4
2017-Oct-17 16:00N 42°09' E 028°40'0 0.7
2017-Oct-17 15:30N 42°09' E 028°39'0 0.4
2017-Oct-17 15:00N 42°10' E 028°40'0 0.4
2017-Oct-17 14:30N 42°10' E 028°40'0 0.5
2017-Oct-17 13:57N 42°10' E 028°40'70 9.5
2017-Oct-17 06:30N 41°01' E 028°60'5 9.2
2017-Oct-17 06:00N 40°57' E 028°58'5 1.3
2017-Oct-17 02:15N 40°57' E 028°52'0 0.0
2017-Oct-16 22:00N 40°57' E 028°52'4 4.5
2017-Oct-16 21:13N 40°57' E 028°57'210.9
2017-Oct-16 21:00N 40°55' E 028°59'611.9
2017-Oct-16 20:30N 40°50' E 029°02'612.3
2017-Oct-16 20:00N 40°47' E 029°10'612.5
2017-Oct-16 19:30N 40°45' E 029°18'5 8.9
2017-Oct-16 18:59N 40°45' E 029°24'8 0.2
2017-Oct-15 03:31N 40°45' E 029°35'210.1
2017-Oct-15 03:19N 40°45' E 029°32'4 9.3
2017-Oct-15 02:56N 40°44' E 029°28'4 9.6
2017-Oct-15 02:29N 40°43' E 029°22'4 8.6
2017-Oct-15 02:00N 40°43' E 029°17'611.2
2017-Oct-15 01:30N 40°43' E 029°09'610.9
2017-Oct-15 00:58N 40°43' E 029°01'232 7.5
2017-Oct-13 17:57N 37°49' E 025°43'410.0
2017-Oct-13 17:30N 37°46' E 025°39'5 9.8
2017-Oct-13 17:00N 37°43' E 025°35'5 9.7
2017-Oct-13 16:30N 37°40' E 025°30'5 9.7
2017-Oct-13 16:00N 37°36' E 025°26'510.1
2017-Oct-13 15:30N 37°33' E 025°21'5 9.9
2017-Oct-13 15:00N 37°31' E 025°15'5 9.9
2017-Oct-13 14:30N 37°28' E 025°10'510.3
2017-Oct-13 14:00N 37°25' E 025°05'510.0
2017-Oct-13 13:30N 37°22' E 024°60'5 9.7
2017-Oct-13 13:01N 37°19' E 024°55'5 9.4
2017-Oct-13 12:31N 37°16' E 024°51'  
2017-Oct-09 00:59N 36°45' E 001°38'510.5
2017-Oct-09 00:30N 36°43' E 001°32'1510.0
2017-Oct-08 22:58N 36°40' E 001°13'4 9.5
2017-Oct-08 22:30N 36°40' E 001°08'5110.4
2017-Oct-08 17:34N 36°30' E 000°05'110.6
2017-Oct-08 17:29N 36°30' E 000°04'910.6
2017-Oct-08 16:41N 36°29' W 000°06'210.8
2017-Oct-08 16:30N 36°29' W 000°09'510.7
2017-Oct-08 16:01N 36°28' W 000°15'510.6
2017-Oct-08 15:29N 36°28' W 000°22'1110.5
2017-Oct-08 14:24N 36°27' W 000°36'  
Track history (hours):
 
Tides and Currents Weather Stations Pressure Air Temp Water Temp Dewpoint Dewpoint Depression Visibility Wind Speed Wind Dir Waves Ship Positions

Parsa

Last reported at 2017-Oct-17 17:35 UTC. Time now 2017-Oct-20 12:44 UTC.
Position N 42°09' E 028°40'.

Length 115 m; draft 5 m.

Type: Ship. MMSI: 271043873.

Date/timePositionNaut miles runAvg speedWind from/ knotsBaromVisibWave heightAir tempDewpointWater temp
2017-Oct-17 17:35N 42°09' E 028°40'0 0.4
2017-Oct-17 17:25N 42°09' E 028°40'0 0.3
2017-Oct-17 17:00N 42°09' E 028°40'0 0.4
2017-Oct-17 16:24N 42°09' E 028°40'0 0.4
2017-Oct-17 16:00N 42°09' E 028°40'0 0.7
2017-Oct-17 15:30N 42°09' E 028°39'0 0.4
2017-Oct-17 15:00N 42°10' E 028°40'0 0.4
2017-Oct-17 14:30N 42°10' E 028°40'0 0.5
2017-Oct-17 13:57N 42°10' E 028°40'70 9.5
2017-Oct-17 06:30N 41°01' E 028°60'5 9.2
2017-Oct-17 06:00N 40°57' E 028°58'5 1.3
2017-Oct-17 02:15N 40°57' E 028°52'0 0.0
2017-Oct-16 22:00N 40°57' E 028°52'4 4.5
2017-Oct-16 21:13N 40°57' E 028°57'210.9
2017-Oct-16 21:00N 40°55' E 028°59'611.9
2017-Oct-16 20:30N 40°50' E 029°02'612.3
2017-Oct-16 20:00N 40°47' E 029°10'612.5
2017-Oct-16 19:30N 40°45' E 029°18'5 8.9
2017-Oct-16 18:59N 40°45' E 029°24'8 0.2
2017-Oct-15 03:31N 40°45' E 029°35'210.1
2017-Oct-15 03:19N 40°45' E 029°32'4 9.3
2017-Oct-15 02:56N 40°44' E 029°28'4 9.6
2017-Oct-15 02:29N 40°43' E 029°22'4 8.6
2017-Oct-15 02:00N 40°43' E 029°17'611.2
2017-Oct-15 01:30N 40°43' E 029°09'610.9
2017-Oct-15 00:58N 40°43' E 029°01'232 7.5
2017-Oct-13 17:57N 37°49' E 025°43'410.0
2017-Oct-13 17:30N 37°46' E 025°39'5 9.8
2017-Oct-13 17:00N 37°43' E 025°35'5 9.7
2017-Oct-13 16:30N 37°40' E 025°30'5 9.7
2017-Oct-13 16:00N 37°36' E 025°26'510.1
2017-Oct-13 15:30N 37°33' E 025°21'5 9.9
2017-Oct-13 15:00N 37°31' E 025°15'5 9.9
2017-Oct-13 14:30N 37°28' E 025°10'510.3
2017-Oct-13 14:00N 37°25' E 025°05'510.0
2017-Oct-13 13:30N 37°22' E 024°60'5 9.7
2017-Oct-13 13:01N 37°19' E 024°55'5 9.4
2017-Oct-13 12:31N 37°16' E 024°51'  
2017-Oct-09 00:59N 36°45' E 001°38'510.5
2017-Oct-09 00:30N 36°43' E 001°32'1510.0
2017-Oct-08 22:58N 36°40' E 001°13'4 9.5
2017-Oct-08 22:30N 36°40' E 001°08'5110.4
2017-Oct-08 17:34N 36°30' E 000°05'110.6
2017-Oct-08 17:29N 36°30' E 000°04'910.6
2017-Oct-08 16:41N 36°29' W 000°06'210.8
2017-Oct-08 16:30N 36°29' W 000°09'510.7
2017-Oct-08 16:01N 36°28' W 000°15'510.6
2017-Oct-08 15:29N 36°28' W 000°22'1110.5
2017-Oct-08 14:24N 36°27' W 000°36'  

Dump ship's entire track history